createdAt,value
2023-12-10T00:01:26.174Z,21.03
2023-12-10T00:03:53.033Z,21.04
2023-12-10T00:06:19.844Z,21.00
2023-12-10T00:08:46.586Z,21.00
2023-12-10T00:11:13.405Z,21.03
2023-12-10T00:13:40.349Z,21.01
2023-12-10T00:16:07.838Z,21.01
2023-12-10T00:18:34.758Z,21.01
2023-12-10T00:21:01.501Z,21.01
2023-12-10T00:23:28.163Z,20.98
2023-12-10T00:25:54.877Z,20.99
2023-12-10T00:28:21.516Z,21.00
2023-12-10T00:30:49.237Z,20.98
2023-12-10T00:33:17.289Z,20.97
2023-12-10T00:35:44.131Z,20.96
2023-12-10T00:38:10.916Z,21.00
2023-12-10T00:40:37.779Z,20.99
2023-12-10T00:43:04.536Z,21.00
2023-12-10T00:45:31.328Z,20.97
2023-12-10T00:47:58.158Z,21.01
2023-12-10T00:50:24.843Z,20.99
2023-12-10T00:52:51.490Z,21.00
2023-12-10T00:55:18.225Z,20.99
2023-12-10T00:57:44.976Z,20.97
2023-12-10T01:00:13.785Z,21.01
2023-12-10T01:02:40.967Z,21.00
2023-12-10T01:05:08.511Z,21.00
2023-12-10T01:07:35.253Z,21.00
2023-12-10T01:10:01.892Z,21.01
2023-12-10T01:12:29.029Z,21.01
2023-12-10T01:14:55.919Z,21.01
2023-12-10T01:17:22.549Z,21.04
2023-12-10T01:19:49.506Z,21.01
2023-12-10T01:22:17.037Z,21.01
2023-12-10T01:24:47.138Z,21.03
2023-12-10T01:27:14.193Z,20.99
2023-12-10T01:29:41.085Z,20.99
2023-12-10T01:32:08.263Z,21.01
2023-12-10T01:34:35.156Z,21.00
2023-12-10T01:37:02.118Z,21.02
2023-12-10T01:39:28.919Z,20.98
2023-12-10T01:41:55.606Z,20.98
2023-12-10T01:44:22.278Z,21.00
2023-12-10T01:46:48.917Z,21.00
2023-12-10T01:49:18.731Z,20.97
2023-12-10T01:51:45.447Z,20.96
2023-12-10T01:54:23.016Z,20.97
2023-12-10T01:56:59.611Z,20.97
2023-12-10T01:59:30.998Z,20.99
2023-12-10T02:01:57.638Z,20.97
2023-12-10T02:04:24.372Z,21.00
2023-12-10T02:06:51.770Z,20.99
2023-12-10T02:09:19.939Z,20.96
2023-12-10T02:11:46.812Z,20.96
2023-12-10T02:14:13.940Z,20.99
2023-12-10T02:16:40.631Z,20.98
2023-12-10T02:19:07.623Z,20.97
2023-12-10T02:21:35.499Z,21.02
2023-12-10T02:24:06.779Z,21.00
2023-12-10T02:26:33.596Z,20.97
2023-12-10T02:29:00.277Z,20.98
2023-12-10T02:31:27.164Z,20.99
2023-12-10T02:33:53.964Z,20.99
2023-12-10T02:36:20.745Z,20.97
2023-12-10T02:38:48.653Z,20.99
2023-12-10T02:41:15.346Z,20.97
2023-12-10T02:43:42.131Z,20.97
2023-12-10T02:46:08.806Z,20.98
2023-12-10T02:48:35.693Z,20.98
2023-12-10T02:51:02.471Z,21.00
2023-12-10T02:53:29.141Z,20.99
2023-12-10T02:55:58.759Z,21.00
2023-12-10T02:58:25.630Z,21.00
2023-12-10T03:00:52.409Z,20.98
2023-12-10T03:03:19.179Z,21.00
2023-12-10T03:05:46.344Z,20.98
2023-12-10T03:08:13.007Z,20.99
2023-12-10T03:10:39.684Z,21.00
2023-12-10T03:13:06.405Z,20.98
2023-12-10T03:15:33.227Z,21.00
2023-12-10T03:17:59.978Z,21.03
2023-12-10T03:20:26.728Z,20.99
2023-12-10T03:22:53.353Z,20.99
2023-12-10T03:25:21.970Z,20.97
2023-12-10T03:27:49.863Z,20.99
2023-12-10T03:30:18.160Z,20.99
2023-12-10T03:32:44.898Z,21.03
2023-12-10T03:35:12.089Z,20.99
2023-12-10T03:37:38.807Z,21.01
2023-12-10T03:40:05.624Z,21.02
2023-12-10T03:42:32.555Z,21.02
2023-12-10T03:44:59.620Z,20.99
2023-12-10T03:47:26.300Z,21.02
2023-12-10T03:49:53.714Z,21.01
2023-12-10T03:52:20.472Z,21.04
2023-12-10T03:54:47.186Z,21.03
2023-12-10T03:57:13.956Z,21.00
2023-12-10T03:59:40.708Z,21.03
2023-12-10T04:02:07.396Z,21.00
2023-12-10T04:04:34.358Z,20.99
2023-12-10T04:07:00.999Z,21.03
2023-12-10T04:09:27.897Z,21.09
2023-12-10T04:11:56.991Z,21.19
2023-12-10T04:14:23.893Z,21.34
2023-12-10T04:16:50.509Z,21.49
2023-12-10T04:19:17.243Z,21.60
2023-12-10T04:21:43.999Z,21.79
2023-12-10T04:24:10.659Z,21.90
2023-12-10T04:26:37.345Z,22.05
2023-12-10T04:29:04.021Z,22.19
2023-12-10T04:31:30.725Z,22.33
2023-12-10T04:33:57.562Z,22.48
2023-12-10T04:36:24.630Z,22.62
2023-12-10T04:38:51.376Z,22.73
2023-12-10T04:41:18.072Z,22.86
2023-12-10T04:43:44.944Z,22.98
2023-12-10T04:46:11.636Z,23.10
2023-12-10T04:48:38.596Z,23.21
2023-12-10T04:51:05.738Z,23.30
2023-12-10T04:53:32.365Z,23.37
2023-12-10T04:55:59.425Z,23.47
2023-12-10T04:58:26.132Z,23.57
2023-12-10T05:00:53.428Z,23.69
2023-12-10T05:03:20.248Z,23.75
2023-12-10T05:05:47.016Z,23.85
2023-12-10T05:08:13.673Z,23.89
2023-12-10T05:10:40.330Z,23.93
2023-12-10T05:13:07.596Z,24.02
2023-12-10T05:15:35.619Z,24.08
2023-12-10T05:18:04.167Z,24.18
2023-12-10T05:20:31.494Z,24.25
2023-12-10T05:23:00.611Z,24.33
2023-12-10T05:25:31.751Z,24.37
2023-12-10T05:27:59.447Z,24.46
2023-12-10T05:30:26.173Z,24.52
2023-12-10T05:32:53.003Z,24.58
2023-12-10T05:35:19.719Z,24.66
2023-12-10T05:37:46.467Z,24.76
2023-12-10T05:40:13.244Z,24.82
2023-12-10T05:42:40.971Z,24.93
2023-12-10T05:45:08.485Z,24.97
2023-12-10T05:47:35.301Z,25.05
2023-12-10T05:50:02.030Z,25.11
2023-12-10T05:52:30.026Z,25.22
2023-12-10T05:54:56.815Z,25.24
2023-12-10T05:57:23.493Z,25.30
2023-12-10T05:59:50.211Z,25.34
2023-12-10T06:02:16.827Z,25.41
2023-12-10T06:04:43.644Z,25.50
2023-12-10T06:07:10.388Z,25.52
2023-12-10T06:09:37.149Z,25.42
2023-12-10T06:12:03.974Z,25.32
2023-12-10T06:14:30.660Z,25.22
2023-12-10T06:16:57.280Z,25.09
2023-12-10T06:19:23.968Z,24.94
2023-12-10T06:21:50.798Z,24.74
2023-12-10T06:24:17.998Z,24.47
2023-12-10T06:26:44.932Z,24.20
2023-12-10T06:29:11.595Z,23.90
2023-12-10T06:31:38.208Z,23.63
2023-12-10T06:34:05.048Z,23.37
2023-12-10T06:36:32.117Z,23.07
2023-12-10T06:38:58.874Z,22.80
2023-12-10T06:41:25.580Z,22.58
2023-12-10T06:43:52.304Z,22.44
2023-12-10T06:46:19.020Z,22.35
2023-12-10T06:48:46.115Z,22.25
2023-12-10T06:51:13.101Z,22.19
2023-12-10T06:53:41.341Z,22.12
2023-12-10T06:56:09.408Z,22.07
2023-12-10T06:58:36.084Z,21.97
2023-12-10T07:01:04.184Z,21.85
2023-12-10T07:03:30.961Z,21.72
2023-12-10T07:06:00.262Z,21.69
2023-12-10T07:08:27.189Z,21.65
2023-12-10T07:10:53.836Z,21.63
2023-12-10T07:13:20.943Z,21.61
2023-12-10T07:15:47.898Z,21.64
2023-12-10T07:18:14.860Z,21.56
2023-12-10T07:20:41.783Z,21.51
2023-12-10T07:23:08.454Z,21.43
2023-12-10T07:25:35.183Z,21.36
2023-12-10T07:28:01.981Z,21.29
2023-12-10T07:30:28.816Z,21.29
2023-12-10T07:32:55.648Z,21.29
2023-12-10T07:35:23.383Z,21.31
2023-12-10T07:37:50.018Z,21.32
2023-12-10T07:40:16.681Z,21.34
2023-12-10T07:42:43.460Z,21.37
2023-12-10T07:45:10.617Z,21.39
2023-12-10T07:47:37.417Z,21.38
2023-12-10T07:50:04.488Z,21.30
2023-12-10T07:52:31.588Z,21.25
2023-12-10T07:54:58.662Z,21.14
2023-12-10T07:57:25.354Z,21.09
2023-12-10T07:59:52.013Z,21.06
2023-12-10T08:02:18.679Z,21.05
2023-12-10T08:04:45.332Z,21.06
2023-12-10T08:07:12.101Z,21.10
2023-12-10T08:09:38.785Z,21.15
2023-12-10T08:12:05.882Z,21.17
2023-12-10T08:14:32.557Z,21.20
2023-12-10T08:16:59.169Z,21.22
2023-12-10T08:19:25.904Z,21.25
2023-12-10T08:21:53.080Z,21.21
2023-12-10T08:24:19.949Z,21.20
2023-12-10T08:26:46.666Z,21.20
2023-12-10T08:29:13.412Z,21.17
2023-12-10T08:31:40.046Z,21.16
2023-12-10T08:34:06.756Z,21.16
2023-12-10T08:36:33.442Z,21.12
2023-12-10T08:39:00.119Z,21.13
2023-12-10T08:41:27.117Z,21.11
2023-12-10T08:43:53.722Z,21.09
2023-12-10T08:46:20.378Z,21.07
2023-12-10T08:48:47.403Z,21.03
2023-12-10T08:51:14.699Z,21.06
2023-12-10T08:53:41.351Z,21.02
2023-12-10T08:56:08.237Z,21.01
2023-12-10T08:58:34.958Z,21.01
2023-12-10T09:01:01.923Z,20.98
2023-12-10T09:03:28.787Z,20.99
2023-12-10T09:05:55.551Z,20.97
2023-12-10T09:08:22.373Z,20.97
2023-12-10T09:10:49.080Z,20.97
2023-12-10T09:13:15.748Z,20.97
2023-12-10T09:15:42.366Z,20.96
2023-12-10T09:18:09.132Z,20.96
2023-12-10T09:20:36.756Z,20.96
2023-12-10T09:23:03.413Z,20.94
2023-12-10T09:25:30.073Z,20.96
2023-12-10T09:27:56.757Z,20.96
2023-12-10T09:30:23.652Z,20.95
2023-12-10T09:32:50.376Z,20.96
2023-12-10T09:35:17.076Z,20.98
2023-12-10T09:37:43.724Z,20.96
2023-12-10T09:40:11.040Z,20.97
2023-12-10T09:42:37.789Z,20.98
2023-12-10T09:45:04.890Z,20.97
2023-12-10T09:47:32.015Z,20.96
2023-12-10T09:49:58.904Z,20.94
2023-12-10T09:52:25.633Z,20.95
2023-12-10T09:54:54.480Z,20.95
2023-12-10T09:57:22.015Z,20.97
2023-12-10T09:59:49.152Z,20.94
2023-12-10T10:02:16.937Z,20.93
2023-12-10T10:04:43.868Z,20.99
2023-12-10T10:07:10.919Z,20.94
2023-12-10T10:09:38.542Z,20.95
2023-12-10T10:12:06.400Z,20.96
2023-12-10T10:14:33.054Z,20.99
2023-12-10T10:16:59.717Z,21.08
2023-12-10T10:19:26.871Z,21.13
2023-12-10T10:21:54.654Z,21.22
2023-12-10T10:24:22.710Z,21.28
2023-12-10T10:26:49.601Z,21.32
2023-12-10T10:29:16.383Z,21.38
2023-12-10T10:31:43.141Z,21.44
2023-12-10T10:34:09.944Z,21.45
2023-12-10T10:36:36.735Z,21.48
2023-12-10T10:39:03.509Z,21.54
2023-12-10T10:41:30.119Z,21.57
2023-12-10T10:44:00.329Z,21.60
2023-12-10T10:46:27.139Z,21.64
2023-12-10T10:48:54.207Z,21.66
2023-12-10T10:51:23.239Z,21.67
2023-12-10T10:53:49.988Z,21.71
2023-12-10T10:56:17.151Z,21.77
2023-12-10T10:58:44.233Z,21.75
2023-12-10T11:01:37.255Z,21.72
2023-12-10T11:04:04.515Z,21.62
2023-12-10T11:06:31.469Z,21.55
2023-12-10T11:09:01.536Z,21.52
2023-12-10T11:11:30.833Z,21.52
2023-12-10T11:13:58.206Z,21.55
2023-12-10T11:16:25.852Z,21.56
2023-12-10T11:18:59.633Z,21.61
2023-12-10T11:21:26.478Z,21.63
2023-12-10T11:23:53.278Z,21.65
2023-12-10T11:26:19.928Z,21.69
2023-12-10T11:28:46.588Z,21.70
2023-12-10T11:31:13.455Z,21.72
2023-12-10T11:33:42.289Z,21.73
2023-12-10T11:36:33.234Z,21.74
2023-12-10T11:39:00.461Z,21.79
2023-12-10T11:41:28.301Z,21.81
2023-12-10T11:43:55.030Z,21.83
2023-12-10T11:46:32.041Z,21.86
2023-12-10T11:49:05.366Z,21.88
2023-12-10T11:51:32.176Z,21.88
2023-12-10T11:53:58.844Z,21.89
2023-12-10T11:56:25.559Z,21.92
2023-12-10T11:58:52.310Z,21.95
2023-12-10T12:01:19.410Z,21.95
2023-12-10T12:03:46.634Z,21.92
2023-12-10T12:06:13.628Z,21.85
2023-12-10T12:08:40.477Z,21.80
2023-12-10T12:11:07.258Z,21.75
2023-12-10T12:13:34.099Z,21.76
2023-12-10T12:16:00.936Z,21.76
2023-12-10T12:18:28.455Z,21.78
2023-12-10T12:20:55.449Z,21.79
2023-12-10T12:23:22.155Z,21.83
2023-12-10T12:25:48.915Z,21.84
2023-12-10T12:28:15.533Z,21.87
2023-12-10T12:30:42.170Z,21.90
2023-12-10T12:33:10.430Z,21.93
2023-12-10T12:35:37.172Z,21.96
2023-12-10T12:38:04.316Z,21.98
2023-12-10T12:40:31.068Z,21.97
2023-12-10T12:42:57.854Z,22.01
2023-12-10T12:45:24.952Z,22.02
2023-12-10T12:47:53.210Z,22.04
2023-12-10T12:50:20.054Z,22.07
2023-12-10T12:52:49.818Z,22.07
2023-12-10T12:55:17.549Z,22.10
2023-12-10T12:57:44.993Z,22.12
2023-12-10T13:00:15.299Z,22.13
2023-12-10T13:02:42.130Z,22.16
2023-12-10T13:05:09.118Z,22.17
2023-12-10T13:07:36.009Z,22.18
2023-12-10T13:10:04.276Z,22.20
2023-12-10T13:12:32.936Z,22.21
2023-12-10T13:14:59.883Z,22.22
2023-12-10T13:17:26.667Z,22.23
2023-12-10T13:19:53.600Z,22.25
2023-12-10T13:22:20.374Z,22.25
2023-12-10T13:24:47.125Z,22.26
2023-12-10T13:27:13.821Z,22.29
2023-12-10T13:29:43.252Z,22.29
2023-12-10T13:32:09.986Z,22.30
2023-12-10T13:34:36.829Z,22.29
2023-12-10T13:37:03.874Z,22.25
2023-12-10T13:39:31.645Z,22.20
2023-12-10T13:41:58.396Z,22.15
2023-12-10T13:44:25.168Z,22.09
2023-12-10T13:46:51.864Z,22.05
2023-12-10T13:49:18.624Z,22.05
2023-12-10T13:51:45.503Z,22.06
2023-12-10T13:54:12.375Z,22.09
2023-12-10T13:56:39.214Z,22.12
2023-12-10T13:59:05.860Z,22.10
2023-12-10T14:01:32.712Z,22.14
2023-12-10T14:03:59.616Z,22.15
2023-12-10T14:06:26.300Z,22.15
2023-12-10T14:08:53.470Z,22.17
2023-12-10T14:11:28.469Z,22.18
2023-12-10T14:13:58.403Z,22.17
2023-12-10T14:16:27.864Z,22.19
2023-12-10T14:18:54.661Z,22.19
2023-12-10T14:21:31.482Z,22.21
2023-12-10T14:23:59.415Z,22.20
2023-12-10T14:26:26.049Z,22.23
2023-12-10T14:28:53.812Z,22.23
2023-12-10T14:31:23.949Z,22.23
2023-12-10T14:33:52.236Z,22.24
2023-12-10T14:36:18.963Z,22.25
2023-12-10T14:38:45.686Z,22.24
2023-12-10T14:41:12.410Z,22.26
2023-12-10T14:43:39.320Z,22.26
2023-12-10T14:46:06.350Z,22.27
2023-12-10T14:48:33.339Z,22.28
2023-12-10T14:51:00.175Z,22.27
2023-12-10T14:53:27.102Z,22.27
2023-12-10T14:55:53.776Z,22.28
2023-12-10T14:58:20.433Z,22.27
2023-12-10T15:00:47.541Z,22.29
2023-12-10T15:03:15.283Z,22.32
2023-12-10T15:05:42.073Z,22.31
2023-12-10T15:08:08.770Z,22.31
2023-12-10T15:10:35.405Z,22.32
2023-12-10T15:13:02.303Z,22.33
2023-12-10T15:15:29.324Z,22.32
2023-12-10T15:17:59.458Z,22.33
2023-12-10T15:20:26.201Z,22.34
2023-12-10T15:22:52.915Z,22.35
2023-12-10T15:25:19.810Z,22.33
2023-12-10T15:27:46.578Z,22.35
2023-12-10T15:30:13.496Z,22.33
2023-12-10T15:32:40.221Z,22.35
2023-12-10T15:35:07.355Z,22.34
2023-12-10T15:37:34.300Z,22.35
2023-12-10T15:40:01.070Z,22.35
2023-12-10T15:42:30.099Z,22.35
2023-12-10T15:44:57.192Z,22.35
2023-12-10T15:47:23.883Z,22.35
2023-12-10T15:49:50.774Z,22.36
2023-12-10T15:52:26.172Z,22.34
2023-12-10T15:54:57.250Z,22.34
2023-12-10T15:57:24.208Z,22.36
2023-12-10T15:59:50.896Z,22.37
2023-12-10T16:02:18.520Z,22.35
2023-12-10T16:04:45.266Z,22.35
2023-12-10T16:07:14.833Z,22.35
2023-12-10T16:09:43.439Z,22.38
2023-12-10T16:12:10.148Z,22.37
2023-12-10T16:14:36.775Z,22.37
2023-12-10T16:17:06.272Z,22.37
2023-12-10T16:19:32.998Z,22.37
2023-12-10T16:21:59.785Z,22.36
2023-12-10T16:24:26.567Z,22.38
2023-12-10T16:26:53.227Z,22.37
2023-12-10T16:29:20.023Z,22.35
2023-12-10T16:31:46.680Z,22.36
2023-12-10T16:34:15.232Z,22.35
2023-12-10T16:36:42.292Z,22.37
2023-12-10T16:39:09.069Z,22.38
2023-12-10T16:41:35.751Z,22.37
2023-12-10T16:44:02.676Z,22.37
2023-12-10T16:46:39.180Z,22.38
2023-12-10T16:49:06.772Z,22.38
2023-12-10T16:51:33.675Z,22.38
2023-12-10T16:54:01.255Z,22.38
2023-12-10T16:56:28.012Z,22.37
2023-12-10T16:58:57.064Z,22.36
2023-12-10T17:01:24.834Z,22.37
2023-12-10T17:03:51.752Z,22.39
2023-12-10T17:06:18.408Z,22.39
2023-12-10T17:08:45.164Z,22.36
2023-12-10T17:11:11.980Z,22.37
2023-12-10T17:13:38.812Z,22.39
2023-12-10T17:16:05.890Z,22.39
2023-12-10T17:18:32.762Z,22.39
2023-12-10T17:20:59.840Z,22.38
2023-12-10T17:23:26.601Z,22.39
2023-12-10T17:25:53.288Z,22.40
2023-12-10T17:28:19.993Z,22.39
2023-12-10T17:30:46.760Z,22.40
2023-12-10T17:33:13.616Z,22.38
2023-12-10T17:35:40.322Z,22.38
2023-12-10T17:38:07.054Z,22.38
2023-12-10T17:40:33.679Z,22.39
2023-12-10T17:43:00.331Z,22.37
2023-12-10T17:45:27.022Z,22.36
2023-12-10T17:47:54.148Z,22.36
2023-12-10T17:50:21.010Z,22.37
2023-12-10T17:52:47.837Z,22.35
2023-12-10T17:55:16.283Z,22.36
2023-12-10T17:57:42.988Z,22.36
2023-12-10T18:00:10.407Z,22.33
2023-12-10T18:02:37.179Z,22.35
2023-12-10T18:05:04.056Z,22.33
2023-12-10T18:07:31.005Z,22.33
2023-12-10T18:09:57.992Z,22.32
2023-12-10T18:12:27.519Z,22.32
2023-12-10T18:14:54.261Z,22.32
2023-12-10T18:17:20.953Z,22.33
2023-12-10T18:19:47.843Z,22.33
2023-12-10T18:22:14.721Z,22.33
2023-12-10T18:24:41.526Z,22.33
2023-12-10T18:27:08.342Z,22.32
2023-12-10T18:29:35.086Z,22.31
2023-12-10T18:32:01.815Z,22.32
2023-12-10T18:34:28.617Z,22.35
2023-12-10T18:36:55.584Z,22.33
2023-12-10T18:39:22.336Z,22.33
2023-12-10T18:41:50.057Z,22.33
2023-12-10T18:44:17.984Z,22.35
2023-12-10T18:46:44.656Z,22.33
2023-12-10T18:49:14.616Z,22.32
2023-12-10T18:51:41.386Z,22.32
2023-12-10T18:54:09.892Z,22.31
2023-12-10T18:56:36.810Z,22.31
2023-12-10T18:59:03.479Z,22.32
2023-12-10T19:01:30.243Z,22.31
2023-12-10T19:03:57.097Z,22.31
2023-12-10T19:06:23.889Z,22.31
2023-12-10T19:08:50.653Z,22.30
2023-12-10T19:11:17.489Z,22.28
2023-12-10T19:13:44.708Z,22.26
2023-12-10T19:16:11.401Z,22.29
2023-12-10T19:18:44.684Z,22.26
2023-12-10T19:21:11.455Z,22.26
2023-12-10T19:23:38.089Z,22.28
2023-12-10T19:26:04.889Z,22.26
2023-12-10T19:28:31.522Z,22.26
2023-12-10T19:30:58.214Z,22.29
2023-12-10T19:33:25.175Z,22.25
2023-12-10T19:35:51.908Z,22.25
2023-12-10T19:38:18.741Z,22.26
2023-12-10T19:40:45.429Z,22.26
2023-12-10T19:43:12.180Z,22.24
2023-12-10T19:45:38.938Z,22.26
2023-12-10T19:48:05.756Z,22.28
2023-12-10T19:50:32.481Z,22.26
2023-12-10T19:52:59.392Z,22.24
2023-12-10T19:55:26.081Z,22.25
2023-12-10T19:57:52.772Z,22.25
2023-12-10T20:00:20.373Z,22.24
2023-12-10T20:02:47.170Z,22.25
2023-12-10T20:05:14.048Z,22.24
2023-12-10T20:07:40.877Z,22.25
2023-12-10T20:10:09.423Z,22.23
2023-12-10T20:12:36.279Z,22.24
2023-12-10T20:15:05.693Z,22.24
2023-12-10T20:17:33.420Z,22.23
2023-12-10T20:20:00.894Z,22.23
2023-12-10T20:22:27.606Z,22.22
2023-12-10T20:25:01.878Z,22.23
2023-12-10T20:27:30.016Z,22.23
2023-12-10T20:29:57.161Z,22.21
2023-12-10T20:32:23.955Z,22.23
2023-12-10T20:34:50.815Z,22.24
2023-12-10T20:37:17.493Z,22.22
2023-12-10T20:39:44.196Z,22.24
2023-12-10T20:42:11.069Z,22.23
2023-12-10T20:44:37.726Z,22.22
2023-12-10T20:47:04.387Z,22.21
2023-12-10T20:49:31.194Z,22.23
2023-12-10T20:51:57.983Z,22.21
2023-12-10T20:54:24.649Z,22.19
2023-12-10T20:56:51.301Z,22.19
2023-12-10T20:59:17.930Z,22.20
2023-12-10T21:01:44.836Z,22.21
2023-12-10T21:04:11.564Z,22.19
2023-12-10T21:06:38.411Z,22.18
2023-12-10T21:09:05.077Z,22.19
2023-12-10T21:11:31.760Z,22.19
2023-12-10T21:14:04.706Z,22.18
2023-12-10T21:16:31.442Z,22.19
2023-12-10T21:18:58.345Z,22.19
2023-12-10T21:21:25.194Z,22.19
2023-12-10T21:23:51.883Z,22.18
2023-12-10T21:26:18.550Z,22.19
2023-12-10T21:28:45.237Z,22.17
2023-12-10T21:31:12.004Z,22.18
2023-12-10T21:33:38.967Z,22.17
2023-12-10T21:36:06.145Z,22.19
2023-12-10T21:38:32.785Z,22.17
2023-12-10T21:41:01.956Z,22.17
2023-12-10T21:43:28.922Z,22.17
2023-12-10T21:45:55.589Z,22.18
2023-12-10T21:48:22.391Z,22.18
2023-12-10T21:50:49.052Z,22.19
2023-12-10T21:53:17.622Z,22.18
2023-12-10T21:55:45.184Z,22.15
2023-12-10T21:58:11.928Z,22.17
2023-12-10T22:00:38.803Z,22.17
2023-12-10T22:03:05.570Z,22.17
2023-12-10T22:05:32.321Z,22.16
2023-12-10T22:07:59.133Z,22.17
2023-12-10T22:10:25.812Z,22.16
2023-12-10T22:12:52.494Z,22.17
2023-12-10T22:15:19.180Z,22.17
2023-12-10T22:17:46.936Z,22.18
2023-12-10T22:20:13.857Z,22.17
2023-12-10T22:22:43.383Z,22.18
2023-12-10T22:25:12.672Z,22.17
2023-12-10T22:27:39.480Z,22.17
2023-12-10T22:30:06.794Z,22.16
2023-12-10T22:32:34.276Z,22.16
2023-12-10T22:35:01.111Z,22.16
2023-12-10T22:37:28.113Z,22.17
2023-12-10T22:39:55.051Z,22.13
2023-12-10T22:42:21.743Z,22.13
2023-12-10T22:44:48.374Z,22.12
2023-12-10T22:47:15.029Z,22.11
2023-12-10T22:49:45.693Z,22.12
2023-12-10T22:52:13.601Z,22.12
2023-12-10T22:54:40.416Z,22.11
2023-12-10T22:57:07.068Z,22.10
2023-12-10T22:59:33.949Z,22.11
2023-12-10T23:02:01.389Z,22.10
2023-12-10T23:04:28.293Z,22.09
2023-12-10T23:06:55.472Z,22.09
2023-12-10T23:09:22.311Z,22.06
2023-12-10T23:11:48.980Z,22.05
2023-12-10T23:14:15.613Z,22.04
2023-12-10T23:16:42.695Z,22.02
2023-12-10T23:19:10.093Z,22.03
2023-12-10T23:21:37.408Z,22.02
2023-12-10T23:24:04.333Z,22.01
2023-12-10T23:26:31.034Z,21.99
2023-12-10T23:28:58.242Z,21.96
2023-12-10T23:31:25.044Z,21.96
2023-12-10T23:33:51.987Z,21.96
2023-12-10T23:36:18.930Z,21.99
2023-12-10T23:38:45.640Z,21.94
2023-12-10T23:41:12.659Z,21.94
2023-12-10T23:43:39.655Z,21.95
2023-12-10T23:46:10.644Z,21.93
2023-12-10T23:48:42.811Z,21.93
2023-12-10T23:51:19.798Z,21.96
2023-12-10T23:53:46.921Z,21.93
2023-12-10T23:56:13.782Z,21.94
2023-12-10T23:58:40.397Z,21.92
